Time;durP1;ratioP1;P1;durP2;ratioP2;P2;SDS_P1;SDS_P2;PMS_P1;PMS_P2;Temp;Humidity;BMP_temperature;BMP_pressure;BME280_temperature;BME280_humidity;BME280_pressure;Samples;Min_cycle;Max_cycle;Signal;HPM_P1;HPM_P2
2023/07/10 00:01:45;;;;;;;7.25;1.73;;;14.70;99.90;;;;;;5032208;28;20166;-81
2023/07/10 00:04:16;;;;;;;8.65;1.45;;;14.70;99.90;;;;;;5032036;28;20685;-82
2023/07/10 00:06:43;;;;;;;11.43;1.70;;;14.60;99.90;;;;;;5032235;28;20290;-82
2023/07/10 00:09:08;;;;;;;9.77;1.88;;;14.30;99.90;;;;;;5031869;28;20170;-82
2023/07/10 00:11:34;;;;;;;6.20;1.70;;;14.50;99.90;;;;;;5031962;28;20660;-81
2023/07/10 00:13:59;;;;;;;11.82;2.15;;;14.50;99.90;;;;;;5031407;28;20218;-83
2023/07/10 00:16:27;;;;;;;6.80;1.70;;;14.50;99.90;;;;;;5031298;28;20181;-83
2023/07/10 00:18:53;;;;;;;9.18;1.67;;;14.50;99.90;;;;;;5031200;28;20178;-78
2023/07/10 00:21:19;;;;;;;14.95;2.00;;;14.60;99.90;;;;;;5031806;28;20232;-77
2023/07/10 00:23:45;;;;;;;13.23;1.60;;;14.60;99.90;;;;;;5031615;28;20173;-76
2023/07/10 00:26:23;;;;;;;8.93;1.75;;;14.60;99.90;;;;;;5031299;28;20628;-77
2023/07/10 00:28:51;;;;;;;12.00;2.25;;;14.60;99.90;;;;;;5015357;28;20214;-77
2023/07/10 00:31:16;;;;;;;7.93;2.08;;;14.50;99.90;;;;;;5031233;28;20178;-76
2023/07/10 00:33:42;;;;;;;5.57;1.60;;;14.50;99.90;;;;;;5030806;28;20213;-76
2023/07/10 00:36:33;;;;;;;8.13;1.88;;;14.50;99.90;;;;;;5031205;28;20221;-76
2023/07/10 00:39:01;;;;;;;6.45;1.48;;;;;;;;;;5031259;28;20205;-75
2023/07/10 00:41:34;;;;;;;9.73;1.65;;;14.40;99.90;;;;;;5031217;28;20177;-75
2023/07/10 00:44:01;;;;;;;10.43;2.05;;;14.20;99.90;;;;;;5031156;28;20166;-75
2023/07/10 00:46:48;;;;;;;7.28;1.70;;;14.40;99.90;;;;;;5031140;28;20178;-77
2023/07/10 00:49:25;;;;;;;8.27;1.77;;;14.40;99.90;;;;;;5031516;28;20162;-73
2023/07/10 00:52:13;;;;;;;5.32;1.55;;;14.40;99.90;;;;;;5031209;28;20169;-69
2023/07/10 00:54:46;;;;;;;12.98;1.73;;;14.30;99.90;;;;;;5032971;28;20236;-77
2023/07/10 00:57:24;;;;;;;7.60;1.60;;;14.30;99.90;;;;;;5031477;28;20170;-74
2023/07/10 00:59:50;;;;;;;6.03;1.77;;;14.30;99.90;;;;;;5019838;28;20182;-73
2023/07/10 01:02:19;;;;;;;12.35;1.77;;;14.30;99.90;;;;;;5028992;28;20196;-74
2023/07/10 01:04:52;;;;;;;9.60;2.30;;;14.40;99.90;;;;;;5025902;28;20170;-74
2023/07/10 01:07:19;;;;;;;9.43;2.03;;;14.40;99.90;;;;;;5011144;28;20236;-75
2023/07/10 01:09:50;;;;;;;9.07;2.15;;;14.50;99.90;;;;;;5011166;28;20171;-73
2023/07/10 01:12:16;;;;;;;8.18;1.75;;;14.40;99.90;;;;;;5011046;28;20216;-73
2023/07/10 01:14:42;;;;;;;7.97;1.70;;;14.40;99.90;;;;;;5011000;28;20222;-73
2023/07/10 01:17:08;;;;;;;7.25;1.85;;;14.40;99.90;;;;;;5017476;28;20174;-73
2023/07/10 01:19:36;;;;;;;12.95;2.10;;;14.40;99.90;;;;;;5030975;28;20228;-73
2023/07/10 01:22:03;;;;;;;7.45;1.70;;;14.40;99.90;;;;;;5030663;28;20677;-73
2023/07/10 01:24:29;;;;;;;8.95;2.03;;;14.40;99.90;;;;;;5030686;28;20188;-72
2023/07/10 01:26:56;;;;;;;8.63;1.85;;;14.50;99.90;;;;;;5030592;28;20166;-74
2023/07/10 01:29:27;;;;;;;12.60;2.42;;;14.50;99.90;;;;;;5030625;28;20178;-75
2023/07/10 01:31:55;;;;;;;7.97;2.20;;;14.50;99.90;;;;;;5030621;28;20173;-75
2023/07/10 01:34:28;;;;;;;8.48;1.98;;;14.60;99.90;;;;;;5030149;28;20684;-77
2023/07/10 01:36:54;;;;;;;10.95;2.30;;;14.60;99.90;;;;;;5029911;28;20178;-78
2023/07/10 01:39:27;;;;;;;10.20;2.42;;;14.60;99.90;;;;;;5030046;28;20212;-77
2023/07/10 01:41:52;;;;;;;9.65;1.92;;;14.70;99.90;;;;;;5030110;28;20180;-78
2023/07/10 01:44:33;;;;;;;7.78;1.80;;;14.70;99.90;;;;;;5030680;28;20260;-78
2023/07/10 01:47:01;;;;;;;6.55;1.50;;;14.60;99.90;;;;;;5030472;28;20216;-76
2023/07/10 01:49:29;;;;;;;13.07;2.00;;;13.80;99.90;;;;;;5030532;28;20162;-76
2023/07/10 01:51:57;;;;;;;15.95;1.90;;;14.70;99.90;;;;;;5030543;28;20173;-77
2023/07/10 01:54:23;;;;;;;6.93;1.85;;;14.70;99.90;;;;;;5062168;28;20526;-77
2023/07/10 01:56:49;;;;;;;14.27;1.92;;;14.60;99.90;;;;;;5030526;28;20177;-76
2023/07/10 01:59:14;;;;;;;13.25;2.00;;;14.60;99.90;;;;;;5032300;28;20190;-73
2023/07/10 02:01:41;;;;;;;10.63;2.03;;;;;;;;;;5034036;28;20177;-74
2023/07/10 02:04:06;;;;;;;10.50;2.00;;;14.40;99.90;;;;;;5034069;28;20183;-75
2023/07/10 02:06:35;;;;;;;12.68;1.98;;;14.40;99.90;;;;;;5033994;28;20532;-74
2023/07/10 02:09:00;;;;;;;8.98;1.90;;;14.50;99.90;;;;;;5034212;28;20170;-75
2023/07/10 02:11:26;;;;;;;10.15;1.90;;;14.50;99.90;;;;;;5032828;28;20628;-75
2023/07/10 02:13:52;;;;;;;10.23;1.90;;;14.50;99.90;;;;;;5033716;28;20696;-75
2023/07/10 02:16:18;;;;;;;12.20;2.33;;;14.50;99.90;;;;;;5033881;28;20179;-74
2023/07/10 02:18:43;;;;;;;9.70;2.33;;;14.40;99.90;;;;;;5033781;28;20196;-75
2023/07/10 02:21:09;;;;;;;8.52;1.80;;;;;;;;;;5033645;28;20601;-75
2023/07/10 02:23:36;;;;;;;6.25;1.80;;;14.60;99.90;;;;;;5033752;28;20205;-75
2023/07/10 02:26:02;;;;;;;15.50;2.03;;;14.40;99.90;;;;;;5033697;28;20166;-77
2023/07/10 02:28:28;;;;;;;9.73;1.90;;;;;;;;;;5033881;28;20166;-77
2023/07/10 02:30:54;;;;;;;11.82;1.70;;;;;;;;;;5033613;28;20173;-78
2023/07/10 02:33:20;;;;;;;6.97;1.85;;;14.40;99.90;;;;;;5033630;28;20692;-78
2023/07/10 02:35:47;;;;;;;8.85;1.92;;;14.60;99.90;;;;;;5033521;28;20182;-78
2023/07/10 02:38:13;;;;;;;6.93;1.67;;;14.50;99.90;;;;;;5033797;28;20525;-79
2023/07/10 02:40:38;;;;;;;11.00;1.65;;;;;;;;;;5033385;28;20236;-79
2023/07/10 02:43:04;;;;;;;11.18;2.30;;;;;;;;;;5033556;28;20166;-79
2023/07/10 02:45:30;;;;;;;9.93;1.92;;;14.60;99.90;;;;;;5033652;28;20629;-82
2023/07/10 02:47:56;;;;;;;10.38;2.10;;;14.60;99.90;;;;;;5033094;28;20247;-78
2023/07/10 02:50:21;;;;;;;13.32;2.10;;;14.30;99.90;;;;;;5033291;28;20170;-82
2023/07/10 02:52:47;;;;;;;10.52;1.90;;;14.30;99.90;;;;;;5033286;28;20807;-81
2023/07/10 02:55:12;;;;;;;6.35;1.65;;;14.50;99.90;;;;;;5014307;28;20174;-82
2023/07/10 02:57:38;;;;;;;8.65;1.92;;;14.40;99.90;;;;;;5026753;28;20544;-82
2023/07/10 03:00:04;;;;;;;7.63;1.92;;;14.40;99.90;;;;;;5033224;28;20209;-82
2023/07/10 03:02:30;;;;;;;11.52;1.77;;;14.30;99.90;;;;;;5032854;28;20273;-78
2023/07/10 03:04:56;;;;;;;13.98;2.40;;;14.30;99.90;;;;;;5032596;28;20740;-77
2023/07/10 03:07:22;;;;;;;7.95;2.15;;;;;;;;;;5032799;28;20181;-76
2023/07/10 03:09:49;;;;;;;16.88;1.95;;;14.30;99.90;;;;;;5032018;28;20235;-74
2023/07/10 03:12:15;;;;;;;14.40;1.92;;;14.40;99.90;;;;;;5025977;28;20190;-75
2023/07/10 03:14:41;;;;;;;7.07;1.80;;;;;;;;;;5028526;28;20229;-74
2023/07/10 03:17:07;;;;;;;8.32;1.90;;;;;;;;;;5031304;28;20216;-74
2023/07/10 03:19:34;;;;;;;3.85;1.60;;;14.30;99.90;;;;;;5032751;28;20178;-75
2023/07/10 03:22:00;;;;;;;11.60;1.90;;;14.10;99.90;;;;;;5032168;28;20202;-74
2023/07/10 03:24:25;;;;;;;9.60;2.20;;;14.10;99.90;;;;;;5032579;28;20189;-74
2023/07/10 03:26:51;;;;;;;14.25;2.35;;;14.00;99.90;;;;;;5031959;28;20256;-74
2023/07/10 03:29:17;;;;;;;11.00;2.20;;;14.00;99.90;;;;;;5032309;28;20641;-73
2023/07/10 03:31:43;;;;;;;11.18;1.90;;;14.00;99.90;;;;;;5032964;28;20224;-71
2023/07/10 03:34:11;;;;;;;4.70;1.42;;;14.00;99.90;;;;;;5034621;28;20245;-72
2023/07/10 03:36:37;;;;;;;10.77;1.90;;;14.10;99.90;;;;;;5032580;28;20272;-73
2023/07/10 03:39:03;;;;;;;8.15;1.90;;;13.90;99.90;;;;;;5032310;28;20269;-73
2023/07/10 03:41:29;;;;;;;6.93;1.92;;;14.00;99.90;;;;;;5031928;28;20206;-73
2023/07/10 03:43:55;;;;;;;15.80;2.10;;;14.00;99.90;;;;;;5032275;28;20779;-73
2023/07/10 03:46:21;;;;;;;6.57;1.45;;;14.10;99.90;;;;;;5031884;28;20177;-73
2023/07/10 03:48:47;;;;;;;10.00;1.60;;;14.10;99.90;;;;;;5032410;28;20178;-70
2023/07/10 03:51:14;;;;;;;12.65;2.13;;;14.10;99.90;;;;;;5032039;28;20556;-70
2023/07/10 03:53:40;;;;;;;12.45;2.00;;;15.60;99.90;;;;;;5032109;28;20209;-71
2023/07/10 03:56:06;;;;;;;8.73;2.05;;;14.10;99.90;;;;;;5032054;28;20220;-71
2023/07/10 03:58:35;;;;;;;8.52;2.35;;;14.00;99.90;;;;;;5031936;28;20262;-70
2023/07/10 04:01:01;;;;;;;11.00;2.20;;;14.00;99.90;;;;;;5031875;28;20173;-71
2023/07/10 04:03:31;;;;;;;12.77;2.35;;;14.10;99.90;;;;;;5031802;28;20173;-72
2023/07/10 04:05:58;;;;;;;6.07;1.73;;;15.50;99.90;;;;;;5031789;28;20260;-72
2023/07/10 04:08:28;;;;;;;11.18;1.83;;;14.00;99.90;;;;;;5031752;28;20204;-72
2023/07/10 04:10:55;;;;;;;10.82;2.33;;;13.90;99.90;;;;;;5031733;28;20170;-72
2023/07/10 04:13:21;;;;;;;8.20;2.03;;;13.90;99.90;;;;;;5030064;28;20221;-72
2023/07/10 04:15:59;;;;;;;7.75;1.98;;;13.90;99.90;;;;;;5031593;28;20224;-73
2023/07/10 04:18:39;;;;;;;9.43;2.15;;;13.90;99.90;;;;;;5031829;28;20184;-73
2023/07/10 04:21:08;;;;;;;8.38;1.45;;;13.80;99.90;;;;;;5031540;28;20174;-72
2023/07/10 04:23:34;;;;;;;9.80;2.10;;;13.80;99.90;;;;;;5031566;28;20193;-72
2023/07/10 04:26:00;;;;;;;10.25;1.83;;;13.80;99.90;;;;;;5031455;28;20212;-72
2023/07/10 04:28:25;;;;;;;8.05;1.92;;;13.80;99.90;;;;;;5031379;28;20166;-72
2023/07/10 04:30:53;;;;;;;9.32;2.20;;;13.90;99.90;;;;;;5031489;28;20285;-71
2023/07/10 04:33:19;;;;;;;9.73;1.92;;;13.90;99.90;;;;;;5031188;28;20244;-72
2023/07/10 04:35:53;;;;;;;10.73;1.90;;;13.90;99.90;;;;;;5031427;28;20173;-73
2023/07/10 04:38:18;;;;;;;11.88;1.88;;;13.90;99.90;;;;;;5031344;28;20169;-72
2023/07/10 04:40:58;;;;;;;11.48;1.90;;;14.10;99.90;;;;;;5031026;28;20224;-72
2023/07/10 04:43:25;;;;;;;10.13;1.95;;;14.00;99.90;;;;;;5031280;28;20195;-73
2023/07/10 04:45:55;;;;;;;5.75;1.75;;;14.00;99.90;;;;;;5030781;28;20169;-73
2023/07/10 04:48:23;;;;;;;12.63;2.33;;;14.00;99.90;;;;;;5030854;28;20221;-73
2023/07/10 04:50:50;;;;;;;6.93;2.10;;;14.00;99.90;;;;;;5030669;28;20188;-72
2023/07/10 04:53:17;;;;;;;7.78;1.98;;;14.10;99.90;;;;;;5030768;28;20208;-73
2023/07/10 04:55:43;;;;;;;9.68;2.28;;;14.10;99.90;;;;;;5030860;28;20263;-73
2023/07/10 04:58:09;;;;;;;9.48;2.22;;;14.20;99.90;;;;;;5030797;28;20169;-73
2023/07/10 05:00:35;;;;;;;8.68;1.83;;;14.20;99.90;;;;;;5063126;28;20174;-71
2023/07/10 05:03:05;;;;;;;10.32;2.20;;;14.20;99.90;;;;;;5030994;28;20269;-71
2023/07/10 05:05:31;;;;;;;11.57;2.17;;;14.30;99.90;;;;;;5030835;28;20166;-71
2023/07/10 05:07:56;;;;;;;8.52;2.58;;;14.40;99.90;;;;;;5031058;28;20170;-71
2023/07/10 05:10:22;;;;;;;10.38;2.97;;;14.40;99.90;;;;;;5030829;28;20170;-71
2023/07/10 05:12:47;;;;;;;11.23;2.65;;;14.40;99.90;;;;;;5030733;28;20358;-71
2023/07/10 05:15:13;;;;;;;8.50;2.70;;;14.50;99.90;;;;;;5030701;28;20758;-71
2023/07/10 05:17:40;;;;;;;9.40;2.60;;;14.60;99.90;;;;;;5030863;28;20178;-72
2023/07/10 05:20:07;;;;;;;13.00;2.90;;;14.70;99.90;;;;;;5030715;28;20236;-72
2023/07/10 05:22:32;;;;;;;12.05;2.78;;;14.80;99.90;;;;;;5030590;28;20265;-73
2023/07/10 05:24:58;;;;;;;10.10;2.33;;;14.90;99.90;;;;;;5030694;28;20265;-72
2023/07/10 05:27:24;;;;;;;11.15;2.72;;;15.00;99.90;;;;;;5030724;28;20212;-70
2023/07/10 05:29:49;;;;;;;17.63;3.17;;;15.10;99.90;;;;;;5030435;28;20565;-71
2023/07/10 05:32:15;;;;;;;12.13;3.28;;;15.20;99.90;;;;;;5030572;28;20526;-68
2023/07/10 05:34:41;;;;;;;11.82;2.55;;;15.30;99.90;;;;;;5035000;28;20174;-78
2023/07/10 05:37:07;;;;;;;11.20;3.20;;;15.60;99.90;;;;;;5033595;28;20232;-79
2023/07/10 05:39:33;;;;;;;12.18;2.88;;;15.60;99.90;;;;;;5034755;28;20661;-72
2023/07/10 05:41:59;;;;;;;16.25;3.53;;;16.10;99.90;;;;;;5033294;28;20176;-73
2023/07/10 05:44:25;;;;;;;25.80;5.10;;;15.80;99.90;;;;;;5034381;28;20182;-74
2023/07/10 05:46:51;;;;;;;12.63;3.55;;;16.00;99.90;;;;;;5034387;28;20253;-74
2023/07/10 05:49:17;;;;;;;17.75;2.78;;;16.10;99.90;;;;;;5034450;28;20166;-74
2023/07/10 05:51:44;;;;;;;15.35;3.15;;;16.20;99.90;;;;;;5034315;28;20175;-73
2023/07/10 05:54:09;;;;;;;15.98;3.67;;;16.30;99.90;;;;;;5034092;28;20229;-71
2023/07/10 05:56:35;;;;;;;15.68;2.97;;;16.20;99.90;;;;;;5034238;28;20170;-69
2023/07/10 05:59:01;;;;;;;15.70;3.65;;;16.30;99.90;;;;;;5028785;28;20187;-70
2023/07/10 06:01:27;;;;;;;11.10;3.30;;;16.40;99.90;;;;;;5026196;28;20525;-70
2023/07/10 06:03:53;;;;;;;13.23;3.70;;;16.60;99.90;;;;;;5034020;28;20166;-69
2023/07/10 06:06:18;;;;;;;11.25;3.08;;;16.40;99.90;;;;;;5015166;28;20182;-70
2023/07/10 06:08:44;;;;;;;12.63;3.10;;;16.70;99.90;;;;;;5014434;28;20177;-72
2023/07/10 06:11:10;;;;;;;13.60;2.47;;;16.40;99.90;;;;;;5014134;28;20587;-71
2023/07/10 06:13:36;;;;;;;15.27;3.67;;;16.70;99.90;;;;;;5013885;28;20313;-71
2023/07/10 06:16:06;;;;;;;15.18;3.17;;;16.80;99.90;;;;;;5014122;28;20714;-71
2023/07/10 06:18:32;;;;;;;13.13;2.78;;;16.70;99.90;;;;;;5032194;28;20177;-70
2023/07/10 06:20:59;;;;;;;19.88;2.90;;;16.70;99.90;;;;;;5033541;28;20173;-71
2023/07/10 06:23:27;;;;;;;12.98;2.97;;;16.80;99.90;;;;;;5033541;28;20625;-70
2023/07/10 06:25:53;;;;;;;12.73;3.08;;;16.90;99.90;;;;;;5033175;28;20186;-71
2023/07/10 06:28:20;;;;;;;16.15;2.85;;;16.90;99.90;;;;;;5033189;28;20189;-71
2023/07/10 06:30:54;;;;;;;14.57;3.35;;;16.90;99.90;;;;;;5033498;28;20166;-71
2023/07/10 06:33:20;;;;;;;14.18;3.20;;;17.00;99.90;;;;;;5033317;28;20676;-70
2023/07/10 06:35:45;;;;;;;17.50;3.60;;;17.00;99.90;;;;;;5033432;28;20185;-70
2023/07/10 06:38:11;;;;;;;12.50;2.92;;;17.00;99.90;;;;;;5033069;28;20181;-70
2023/07/10 06:40:36;;;;;;;10.43;2.80;;;17.10;99.90;;;;;;5033494;28;20182;-71
2023/07/10 06:43:02;;;;;;;17.30;2.60;;;17.10;99.90;;;;;;5033334;28;20177;-72
2023/07/10 06:45:27;;;;;;;10.02;2.15;;;17.40;99.90;;;;;;5031460;28;20550;-71
2023/07/10 06:47:53;;;;;;;14.38;2.45;;;17.10;99.90;;;;;;5032902;28;20174;-71
2023/07/10 06:50:19;;;;;;;8.73;2.63;;;17.20;99.90;;;;;;5033412;28;20200;-72
2023/07/10 06:52:45;;;;;;;14.27;2.60;;;17.20;99.90;;;;;;5065077;28;20574;-71
2023/07/10 06:55:14;;;;;;;13.75;2.40;;;17.30;99.90;;;;;;5033040;28;20252;-73
2023/07/10 06:57:39;;;;;;;13.07;2.65;;;17.30;99.90;;;;;;5032949;28;20660;-71
2023/07/10 07:00:08;;;;;;;6.95;2.13;;;17.30;99.90;;;;;;5032900;28;20177;-72
2023/07/10 07:02:34;;;;;;;11.98;2.33;;;17.40;99.90;;;;;;5033240;28;20178;-72
2023/07/10 07:05:00;;;;;;;16.67;2.70;;;17.50;99.90;;;;;;5033165;28;20178;-72
2023/07/10 07:07:25;;;;;;;9.30;1.50;;;17.60;99.90;;;;;;5032751;28;20565;-72
2023/07/10 07:09:51;;;;;;;12.18;2.17;;;17.40;99.90;;;;;;5064802;28;20169;-71
2023/07/10 07:12:17;;;;;;;10.35;2.20;;;;;;;;;;5032659;28;20202;-72
2023/07/10 07:14:43;;;;;;;14.10;2.22;;;17.70;99.90;;;;;;5032490;28;20390;-71
2023/07/10 07:17:08;;;;;;;10.82;2.03;;;17.80;99.90;;;;;;5032623;28;20618;-78
2023/07/10 07:19:34;;;;;;;9.27;1.65;;;17.90;99.90;;;;;;5032560;28;20243;-76
2023/07/10 07:22:00;;;;;;;12.65;2.40;;;17.90;99.90;;;;;;5032590;28;20184;-76
2023/07/10 07:24:26;;;;;;;11.43;2.97;;;18.10;99.90;;;;;;5032611;28;20713;-78
2023/07/10 07:26:52;;;;;;;11.30;2.13;;;;;;;;;;5032866;28;20181;-76
2023/07/10 07:29:18;;;;;;;10.45;2.35;;;18.10;99.90;;;;;;5032576;28;20209;-75
2023/07/10 07:31:43;;;;;;;13.23;2.22;;;18.00;99.90;;;;;;5032593;28;20284;-75
2023/07/10 07:34:09;;;;;;;10.35;1.80;;;18.00;99.90;;;;;;5032411;28;20214;-76
2023/07/10 07:36:36;;;;;;;10.80;2.03;;;18.10;99.90;;;;;;5032719;28;20244;-75
2023/07/10 07:39:04;;;;;;;12.63;2.50;;;18.20;99.90;;;;;;5032391;28;20174;-68
2023/07/10 07:41:33;;;;;;;9.95;2.45;;;18.30;99.90;;;;;;5032417;28;20169;-76
2023/07/10 07:44:00;;;;;;;9.60;2.28;;;18.20;99.90;;;;;;5031842;28;20587;-76
2023/07/10 07:46:26;;;;;;;13.80;2.78;;;18.40;99.90;;;;;;5031695;28;20170;-73
2023/07/10 07:48:51;;;;;;;13.80;2.58;;;18.50;99.90;;;;;;5031627;28;20186;-74
2023/07/10 07:51:17;;;;;;;13.45;2.20;;;18.50;99.90;;;;;;5031560;28;20182;-74
2023/07/10 07:53:43;;;;;;;7.65;1.85;;;18.40;99.90;;;;;;5031432;28;20221;-86
2023/07/10 07:56:09;;;;;;;12.48;2.30;;;18.50;99.90;;;;;;5030193;28;20678;-84
2023/07/10 07:58:35;;;;;;;13.50;2.10;;;18.50;99.90;;;;;;5031694;28;20218;-81
2023/07/10 08:01:01;;;;;;;11.13;2.00;;;18.50;99.90;;;;;;5031829;28;20182;-85
2023/07/10 08:03:27;;;;;;;13.63;2.03;;;18.50;99.90;;;;;;5031962;28;20180;-77
2023/07/10 08:05:53;;;;;;;17.55;2.20;;;18.50;99.90;;;;;;5031691;28;20176;-76
2023/07/10 08:08:19;;;;;;;16.58;2.20;;;18.50;99.90;;;;;;5031686;28;20182;-75
2023/07/10 08:10:47;;;;;;;11.13;1.95;;;18.60;99.90;;;;;;5031783;28;20177;-73
2023/07/10 08:13:14;;;;;;;12.55;2.30;;;18.50;99.90;;;;;;5031465;28;20661;-75
2023/07/10 08:15:41;;;;;;;12.77;1.85;;;18.50;99.90;;;;;;5031413;28;20501;-76
2023/07/10 08:18:07;;;;;;;12.18;2.30;;;18.60;99.90;;;;;;5031695;28;20256;-76
2023/07/10 08:20:33;;;;;;;10.85;1.88;;;18.80;99.90;;;;;;5031671;28;20185;-76
2023/07/10 08:22:58;;;;;;;11.88;1.80;;;18.70;99.90;;;;;;5031310;28;20174;-70
2023/07/10 08:25:24;;;;;;;10.20;1.90;;;18.80;99.90;;;;;;5031374;28;20177;-68
2023/07/10 08:27:50;;;;;;;12.20;1.80;;;18.80;99.90;;;;;;5030079;28;20182;-77
2023/07/10 08:30:16;;;;;;;10.45;2.08;;;;;;;;;;5030281;28;20633;-72
2023/07/10 08:32:42;;;;;;;8.88;2.03;;;19.10;99.90;;;;;;5031241;28;20212;-73
2023/07/10 08:35:08;;;;;;;13.43;2.30;;;19.10;99.90;;;;;;5030864;28;20181;-73
2023/07/10 08:37:38;;;;;;;7.68;1.73;;;19.20;99.90;;;;;;5030824;28;20184;-72
2023/07/10 08:40:05;;;;;;;17.10;1.75;;;19.20;99.90;;;;;;5030755;28;20178;-73
2023/07/10 08:42:32;;;;;;;13.98;2.40;;;19.40;99.90;;;;;;5030882;28;20166;-74
2023/07/10 08:44:59;;;;;;;15.82;2.42;;;19.40;99.90;;;;;;5030829;28;20173;-74
2023/07/10 08:47:29;;;;;;;16.10;1.98;;;19.30;99.90;;;;;;5030471;28;20169;-72
2023/07/10 08:50:21;;;;;;;9.00;1.50;;;19.40;99.90;;;;;;5025321;28;20260;-75
2023/07/10 08:53:04;;;;;;;11.65;2.05;;;19.30;99.90;;;;;;5010943;28;20210;-77
2023/07/10 08:55:35;;;;;;;7.47;1.55;;;19.40;99.90;;;;;;5023057;28;20182;-78
2023/07/10 08:58:02;;;;;;;12.32;1.70;;;19.50;99.90;;;;;;5045603;28;20629;-76
2023/07/10 09:00:35;;;;;;;10.40;2.17;;;19.60;99.90;;;;;;5030769;28;20193;-71
2023/07/10 09:03:39;;;;;;;14.10;2.05;;;19.50;99.90;;;;;;5030749;28;20165;-70
2023/07/10 09:06:10;;;;;;;7.60;1.73;;;19.60;99.90;;;;;;5030795;28;20184;-68
2023/07/10 09:08:36;;;;;;;12.77;1.70;;;;;;;;;;5029977;28;20185;-70
2023/07/10 09:11:03;;;;;;;6.78;1.42;;;19.60;99.90;;;;;;5030039;28;20166;-70
2023/07/10 09:13:59;;;;;;;14.48;2.15;;;19.70;99.90;;;;;;5028575;28;20221;-73
2023/07/10 09:16:26;;;;;;;9.90;1.80;;;19.70;99.90;;;;;;5029990;28;20197;-78
2023/07/10 09:18:57;;;;;;;12.70;1.98;;;19.70;99.90;;;;;;5029968;28;20178;-71
2023/07/10 09:21:34;;;;;;;15.75;2.05;;;19.90;99.90;;;;;;5030594;28;20188;-69
2023/07/10 09:24:04;;;;;;;12.60;2.38;;;20.00;99.90;;;;;;5029928;28;20173;-70
2023/07/10 09:26:39;;;;;;;9.98;1.88;;;19.80;99.90;;;;;;5030422;28;20201;-70
2023/07/10 09:29:11;;;;;;;13.35;2.10;;;19.80;99.90;;;;;;5030245;28;20182;-70
2023/07/10 09:32:02;;;;;;;11.02;1.92;;;19.90;99.90;;;;;;5030547;28;20170;-68
2023/07/10 09:34:31;;;;;;;8.98;1.38;;;20.00;99.90;;;;;;5029646;28;20212;-70
2023/07/10 09:36:58;;;;;;;16.08;1.98;;;19.70;99.90;;;;;;5030793;28;20177;-70
2023/07/10 09:39:27;;;;;;;9.82;2.13;;;19.90;99.90;;;;;;5030608;28;20714;-70
2023/07/10 09:41:56;;;;;;;11.15;2.05;;;19.60;99.90;;;;;;5029638;28;20205;-69
2023/07/10 09:44:22;;;;;;;10.95;1.98;;;19.70;99.90;;;;;;5030229;28;20175;-70
2023/07/10 09:46:49;;;;;;;12.52;2.50;;;19.60;99.90;;;;;;5030350;28;20213;-69
2023/07/10 09:49:20;;;;;;;15.77;1.98;;;19.60;99.90;;;;;;5030373;28;20174;-70
2023/07/10 09:51:58;;;;;;;12.63;1.88;;;19.40;99.90;;;;;;5029735;28;20189;-70
2023/07/10 09:54:24;;;;;;;10.20;2.17;;;19.50;99.90;;;;;;5030048;28;20221;-70
2023/07/10 09:56:53;;;;;;;12.40;2.40;;;19.50;99.90;;;;;;5028856;28;20189;-71
2023/07/10 09:59:22;;;;;;;15.20;2.20;;;19.60;99.90;;;;;;5029870;28;20718;-70
2023/07/10 10:01:50;;;;;;;18.88;2.40;;;19.50;99.90;;;;;;5030236;28;20166;-71
2023/07/10 10:04:28;;;;;;;15.80;2.50;;;19.40;99.90;;;;;;5027526;28;20173;-70
2023/07/10 10:07:02;;;;;;;14.20;2.20;;;19.50;99.90;;;;;;5029185;28;20185;-70
2023/07/10 10:09:29;;;;;;;14.68;2.33;;;19.60;99.90;;;;;;5029717;28;20625;-70
2023/07/10 10:12:11;;;;;;;13.80;2.22;;;19.70;99.90;;;;;;5029927;28;20178;-71
2023/07/10 10:14:51;;;;;;;9.38;1.88;;;19.50;99.90;;;;;;5029882;28;20225;-71
2023/07/10 10:17:21;;;;;;;16.88;2.83;;;17.50;99.90;;;;;;5030089;28;20165;-72
2023/07/10 10:19:53;;;;;;;12.13;2.20;;;20.10;99.90;;;;;;5031363;28;20166;-71
2023/07/10 10:22:23;;;;;;;12.30;2.05;;;20.20;99.90;;;;;;5033718;28;20219;-72
2023/07/10 10:24:49;;;;;;;14.07;2.67;;;20.60;99.90;;;;;;5033672;28;20636;-71
2023/07/10 10:27:26;;;;;;;9.68;1.95;;;20.90;99.90;;;;;;5033433;28;20180;-72
2023/07/10 10:29:55;;;;;;;7.72;1.80;;;21.10;99.90;;;;;;5033232;28;20708;-72
2023/07/10 10:32:44;;;;;;;15.73;2.67;;;20.90;99.90;;;;;;5033524;28;20174;-72
2023/07/10 10:35:33;;;;;;;16.63;2.05;;;20.80;99.90;;;;;;5033769;28;20208;-71
2023/07/10 10:38:26;;;;;;;13.38;1.90;;;20.70;99.90;;;;;;5033512;28;20177;-72
2023/07/10 10:41:15;;;;;;;19.05;2.53;;;21.10;99.90;;;;;;5033340;28;20173;-73
2023/07/10 10:43:55;;;;;;;15.50;2.53;;;21.30;1.00;;;;;;5033112;28;20201;-72
2023/07/10 10:46:32;;;;;;;8.27;1.67;;;21.40;1.00;;;;;;5033332;28;20174;-73
2023/07/10 10:49:10;;;;;;;10.73;2.17;;;21.70;99.90;;;;;;5033232;28;20200;-72
2023/07/10 10:51:56;;;;;;;6.35;1.67;;;22.40;1.00;;;;;;5032903;28;20169;-71
2023/07/10 10:54:34;;;;;;;16.70;2.28;;;22.00;1.00;;;;;;5033147;28;20216;-70
2023/07/10 10:57:12;;;;;;;10.80;2.22;;;21.90;1.00;;;;;;5032889;28;20166;-74
2023/07/10 10:59:54;;;;;;;9.82;2.13;;;21.90;1.00;;;;;;5032816;28;20660;-70
2023/07/10 11:02:41;;;;;;;9.00;1.77;;;22.10;89.60;;;;;;5032735;28;20197;-71
2023/07/10 11:05:35;;;;;;;15.48;2.80;;;22.00;99.90;;;;;;5032186;28;20178;-70
2023/07/10 11:08:24;;;;;;;9.55;2.05;;;22.40;1.00;;;;;;5031290;28;20177;-72
2023/07/10 11:10:52;;;;;;;10.55;1.75;;;22.30;1.00;;;;;;5032123;28;20182;-72
2023/07/10 11:13:38;;;;;;;8.63;1.85;;;22.10;99.90;;;;;;5032904;28;20213;-71
2023/07/10 11:16:06;;;;;;;14.13;2.55;;;22.60;1.00;;;;;;5032088;28;20233;-77
2023/07/10 11:18:33;;;;;;;11.23;2.45;;;22.70;99.90;;;;;;5032378;28;20560;-72
2023/07/10 11:21:01;;;;;;;9.68;2.40;;;22.90;1.00;;;;;;5031327;28;20178;-73
2023/07/10 11:23:42;;;;;;;10.82;2.33;;;22.50;99.90;;;;;;5032592;28;20204;-72
2023/07/10 11:26:09;;;;;;;17.83;2.63;;;22.00;1.00;;;;;;5031988;28;20254;-71
2023/07/10 11:28:35;;;;;;;9.38;1.95;;;22.20;99.90;;;;;;5032223;28;20177;-74
2023/07/10 11:31:30;;;;;;;13.00;2.10;;;21.10;1.00;;;;;;5031980;28;20170;-72
2023/07/10 11:34:19;;;;;;;10.73;1.80;;;21.40;1.00;;;;;;5007025;28;20241;-71
2023/07/10 11:36:46;;;;;;;11.35;1.95;;;21.40;1.00;;;;;;4991014;28;20240;-71
2023/07/10 11:39:29;;;;;;;14.55;2.60;;;22.70;1.00;;;;;;5032293;28;20193;-72
2023/07/10 11:41:55;;;;;;;19.17;2.78;;;21.60;1.00;;;;;;5031612;28;20186;-72
2023/07/10 11:44:28;;;;;;;9.93;1.77;;;21.80;1.00;;;;;;5032052;28;20704;-74
2023/07/10 11:47:10;;;;;;;11.80;1.40;;;22.00;1.00;;;;;;5031912;28;20684;-79
2023/07/10 11:49:51;;;;;;;5.85;1.52;;;22.20;99.90;;;;;;5031746;28;20174;-73
2023/07/10 11:52:16;;;;;;;10.20;2.08;;;21.80;99.90;;;;;;5031951;28;20182;-71
2023/07/10 11:54:48;;;;;;;6.20;1.23;;;22.00;99.90;;;;;;5031815;28;20232;-71
2023/07/10 11:57:19;;;;;;;13.38;2.58;;;21.40;99.90;;;;;;5031647;28;20174;-70
2023/07/10 11:59:48;;;;;;;17.23;2.20;;;21.40;1.00;;;;;;5030791;28;20180;-70
2023/07/10 12:02:33;;;;;;;15.45;2.05;;;21.50;1.00;;;;;;5029488;28;20269;-71
2023/07/10 12:05:01;;;;;;;13.25;2.08;;;20.90;1.00;;;;;;5042328;28;20190;-69
2023/07/10 12:07:27;;;;;;;8.95;2.05;;;21.20;3.20;;;;;;5031358;28;20564;-69
2023/07/10 12:09:56;;;;;;;11.85;1.80;;;21.10;99.90;;;;;;5031443;28;20247;-67
2023/07/10 12:12:22;;;;;;;13.85;2.83;;;21.00;99.90;;;;;;5029930;28;20763;-69
2023/07/10 12:14:47;;;;;;;8.95;1.63;;;21.40;99.90;;;;;;5031017;28;20309;-70
2023/07/10 12:17:18;;;;;;;9.98;2.05;;;21.30;99.90;;;;;;5030996;28;20181;-69
2023/07/10 12:19:45;;;;;;;15.73;2.45;;;21.20;1.00;;;;;;5031474;28;20190;-70
2023/07/10 12:22:22;;;;;;;14.20;2.20;;;21.30;99.90;;;;;;5031178;28;20174;-72
2023/07/10 12:24:49;;;;;;;12.50;2.10;;;21.30;1.00;;;;;;5031305;28;20178;-70
2023/07/10 12:27:15;;;;;;;8.10;1.98;;;21.10;21.70;;;;;;5031336;28;20173;-73
2023/07/10 12:29:51;;;;;;;8.00;1.40;;;21.30;99.90;;;;;;5031156;28;20667;-72
2023/07/10 12:32:18;;;;;;;13.63;1.75;;;21.50;10.30;;;;;;5031112;28;20243;-72
2023/07/10 12:34:43;;;;;;;9.05;2.60;;;21.30;1.00;;;;;;5030945;28;20228;-72
2023/07/10 12:37:11;;;;;;;13.80;2.03;;;21.40;1.00;;;;;;5029608;28;20169;-72
2023/07/10 12:39:37;;;;;;;15.25;2.40;;;21.20;99.90;;;;;;5016628;28;20256;-72
2023/07/10 12:42:22;;;;;;;9.38;2.40;;;20.90;1.00;;;;;;5030765;28;20185;-72
2023/07/10 12:44:47;;;;;;;6.43;1.38;;;20.90;1.00;;;;;;5030790;28;20182;-71
2023/07/10 12:47:14;;;;;;;10.20;1.92;;;21.10;1.00;;;;;;5028436;28;20682;-70
2023/07/10 12:49:49;;;;;;;11.80;2.05;;;21.10;1.00;;;;;;5024430;28;20188;-70
2023/07/10 12:52:17;;;;;;;10.52;2.22;;;21.30;1.00;;;;;;5030866;28;20227;-71
2023/07/10 12:54:46;;;;;;;8.70;1.77;;;20.90;1.00;;;;;;5030354;28;20212;-68
2023/07/10 12:57:30;;;;;;;5.78;1.50;;;20.90;1.00;;;;;;5030577;28;20224;-68